Time;durP1;ratioP1;P1;durP2;ratioP2;P2;SDS_P1;SDS_P2;PMS_P1;PMS_P2;Temp;Humidity;BMP_temperature;BMP_pressure;BME280_temperature;BME280_humidity;BME280_pressure;Samples;Min_cycle;Max_cycle;Signal;HPM_P1;HPM_P2
2023/04/29 00:00:07;;;;;;;70.25;53.00;;;;;;;10.17;100.00;101340.59;5093680;28;20019;-58
2023/04/29 00:02:33;;;;;;;58.58;48.33;;;;;;;10.08;100.00;101349.06;5092435;28;20051;-57
2023/04/29 00:04:58;;;;;;;64.78;49.92;;;;;;;9.99;100.00;101347.75;5093638;28;20057;-57
2023/04/29 00:07:23;;;;;;;66.65;49.10;;;;;;;9.91;100.00;101346.41;5092692;28;20104;-57
2023/04/29 00:09:49;;;;;;;62.60;50.53;;;;;;;10.00;100.00;101346.81;5092361;28;20532;-58
2023/04/29 00:12:14;;;;;;;64.00;50.17;;;;;;;10.00;100.00;101348.63;5093526;28;20099;-57
2023/04/29 00:14:42;;;;;;;63.55;50.22;;;;;;;9.92;100.00;101348.16;5093502;28;20653;-57
2023/04/29 00:17:08;;;;;;;61.38;48.50;;;;;;;9.97;100.00;101354.94;5093651;28;20089;-57
2023/04/29 00:19:34;;;;;;;63.42;49.28;;;;;;;9.87;100.00;101337.75;5093458;28;20020;-57
2023/04/29 00:22:00;;;;;;;63.90;50.10;;;;;;;10.01;100.00;101350.31;5092464;28;20552;-57
2023/04/29 00:24:26;;;;;;;65.68;51.33;;;;;;;10.01;100.00;101340.56;5093385;28;20034;-57
2023/04/29 00:26:51;;;;;;;62.75;47.85;;;;;;;10.18;100.00;101354.75;5093127;28;20086;-57
2023/04/29 00:29:19;;;;;;;58.95;46.80;;;;;;;10.13;100.00;101354.13;5093014;28;20474;-58
2023/04/29 00:31:45;;;;;;;55.53;46.25;;;;;;;10.16;100.00;101362.81;5093045;28;20028;-57
2023/04/29 00:34:12;;;;;;;56.83;45.08;;;;;;;10.09;100.00;101363.19;5091954;28;20084;-57
2023/04/29 00:36:38;;;;;;;53.17;44.17;;;;;;;10.09;100.00;101366.75;5098859;28;20057;-58
2023/04/29 00:39:03;;;;;;;56.03;45.30;;;;;;;10.10;100.00;101357.81;5108519;28;20417;-57
2023/04/29 00:41:30;;;;;;;49.85;44.38;;;;;;;9.95;100.00;101372.75;5100464;27;20051;-58
2023/04/29 00:43:55;;;;;;;48.65;43.40;;;;;;;9.99;100.00;101371.66;5110629;28;20034;-57
2023/04/29 00:46:21;;;;;;;44.00;39.20;;;;;;;9.87;100.00;101368.78;5104709;28;20020;-58
2023/04/29 00:48:49;;;;;;;43.25;38.67;;;;;;;9.79;99.98;101377.13;5100159;28;20034;-58
2023/04/29 00:51:16;;;;;;;42.22;37.80;;;;;;;9.81;100.00;101382.38;5108823;28;20031;-58
2023/04/29 00:53:42;;;;;;;43.13;38.65;;;;;;;9.77;100.00;101379.03;5092047;28;20032;-57
2023/04/29 00:56:09;;;;;;;41.60;37.38;;;;;;;9.68;100.00;101368.88;5091305;28;20160;-57
2023/04/29 00:58:35;;;;;;;41.35;37.33;;;;;;;9.75;100.00;101384.41;5092457;28;20050;-57
2023/04/29 01:01:02;;;;;;;41.47;37.28;;;;;;;9.76;100.00;101383.50;5090890;28;20055;-57
2023/04/29 01:03:31;;;;;;;41.25;37.13;;;;;;;9.87;100.00;101382.91;5092689;28;20493;-58
2023/04/29 01:06:34;;;;;;;41.10;36.70;;;;;;;9.89;100.00;101385.53;5092203;28;20032;-57
2023/04/29 01:09:25;;;;;;;41.60;37.50;;;;;;;9.81;100.00;101385.91;5068385;28;20115;-57
2023/04/29 01:11:54;;;;;;;41.72;37.45;;;;;;;9.81;100.00;101385.03;5092139;28;20487;-58
2023/04/29 01:14:22;;;;;;;39.15;35.25;;;;;;;9.76;99.65;101390.56;5092201;28;20169;-58
2023/04/29 01:16:52;;;;;;;39.28;35.28;;;;;;;9.74;100.00;101387.16;5091024;28;20467;-57
2023/04/29 01:19:20;;;;;;;39.13;35.22;;;;;;;9.72;100.00;101392.53;5090559;28;20028;-57
2023/04/29 01:21:47;;;;;;;41.13;36.95;;;;;;;9.56;99.91;101396.91;5091510;28;20047;-58
2023/04/29 01:24:13;;;;;;;40.70;36.47;;;;;;;9.65;100.00;101395.59;5092339;28;20379;-57
2023/04/29 01:26:44;;;;;;;43.13;38.78;;;;;;;9.64;100.00;101399.19;5091903;28;20035;-58
2023/04/29 01:29:26;;;;;;;43.55;38.97;;;;;;;9.63;100.00;101405.44;5092179;28;20020;-57
2023/04/29 01:32:10;;;;;;;44.15;39.35;;;;;;;9.62;100.00;101401.94;5091891;28;20016;-57
2023/04/29 01:34:46;;;;;;;43.50;39.00;;;;;;;9.70;100.00;101404.16;5092153;28;20020;-58
2023/04/29 01:37:36;;;;;;;44.67;39.90;;;;;;;9.76;100.00;101403.84;5090320;28;20016;-58
2023/04/29 01:40:10;;;;;;;44.63;40.05;;;;;;;9.74;99.84;101406.63;5092062;28;20047;-57
2023/04/29 01:42:43;;;;;;;45.35;40.42;;;;;;;9.82;100.00;101410.66;5098139;28;20076;-58
2023/04/29 01:45:10;;;;;;;47.47;42.05;;;;;;;9.64;100.00;101415.97;5109028;28;20024;-57
2023/04/29 01:47:37;;;;;;;46.00;41.05;;;;;;;9.60;100.00;101417.06;5100431;28;20047;-57
2023/04/29 01:50:05;;;;;;;52.60;44.30;;;;;;;9.53;100.00;101407.69;5109724;28;20482;-57
2023/04/29 01:52:31;;;;;;;47.80;42.30;;;;;;;9.51;100.00;101415.72;5110295;28;20031;-57
2023/04/29 01:54:56;;;;;;;47.75;42.65;;;;;;;9.60;100.00;101414.41;5107941;28;20374;-63
2023/04/29 01:57:25;;;;;;;49.53;43.35;;;;;;;9.50;100.00;101413.13;5111107;28;20509;-57
2023/04/29 01:59:51;;;;;;;49.33;42.80;;;;;;;9.51;100.00;101422.84;5094243;28;20428;-57
2023/04/29 02:02:20;;;;;;;56.85;45.10;;;;;;;9.51;100.00;101420.19;5109688;28;20540;-57
2023/04/29 02:04:45;;;;;;;51.67;45.70;;;;;;;9.59;100.00;101422.44;5110958;28;20024;-57
2023/04/29 02:07:11;;;;;;;52.47;46.80;;;;;;;9.54;100.00;101412.06;5110175;28;20031;-57
2023/04/29 02:09:36;;;;;;;52.83;46.90;;;;;;;9.71;100.00;101411.22;5110938;28;20394;-57
2023/04/29 02:12:03;;;;;;;52.63;47.00;;;;;;;9.68;100.00;101425.50;5110664;28;20101;-57
2023/04/29 02:14:29;;;;;;;59.45;47.95;;;;;;;9.66;100.00;101429.19;5110875;28;20031;-57
2023/04/29 02:16:54;;;;;;;59.60;46.95;;;;;;;9.63;100.00;101434.66;5111831;28;20653;-57
2023/04/29 02:19:20;;;;;;;52.97;47.08;;;;;;;9.62;100.00;101436.44;5109262;28;20059;-57
2023/04/29 02:21:45;;;;;;;56.75;45.72;;;;;;;9.77;100.00;101441.00;5109079;28;20059;-58
2023/04/29 02:24:11;;;;;;;61.15;47.42;;;;;;;9.70;100.00;101441.34;5108131;28;20058;-57
2023/04/29 02:26:37;;;;;;;56.90;47.53;;;;;;;9.63;100.00;101446.13;5100856;28;20034;-57
2023/04/29 02:29:02;;;;;;;53.78;45.63;;;;;;;9.69;100.00;101445.81;5109527;28;20135;-57
2023/04/29 02:31:28;;;;;;;56.95;47.03;;;;;;;9.66;100.00;101445.97;5109519;28;20098;-57
2023/04/29 02:33:56;;;;;;;64.05;47.80;;;;;;;9.66;100.00;101455.75;5113457;28;20433;-57
2023/04/29 02:36:23;;;;;;;58.00;47.63;;;;;;;9.66;100.00;101450.44;5112769;28;20032;-57
2023/04/29 02:38:49;;;;;;;61.47;49.67;;;;;;;9.70;100.00;101458.16;5113102;28;20043;-57
2023/04/29 02:41:18;;;;;;;63.13;50.58;;;;;;;9.74;100.00;101462.41;5115534;28;20104;-58
2023/04/29 02:43:48;;;;;;;61.17;48.33;;;;;;;9.70;100.00;101466.13;5112250;28;20031;-57
2023/04/29 02:46:15;;;;;;;69.20;50.42;;;;;;;9.70;100.00;101471.44;5106902;28;20534;-57
2023/04/29 02:48:40;;;;;;;59.45;48.33;;;;;;;9.75;100.00;101476.53;5110879;28;20051;-57
2023/04/29 02:51:06;;;;;;;64.95;47.90;;;;;;;9.65;100.00;101477.94;5112452;28;20051;-57
2023/04/29 02:53:31;;;;;;;61.28;49.47;;;;;;;9.67;100.00;101481.34;5113940;28;20120;-57
2023/04/29 02:55:57;;;;;;;63.58;48.30;;;;;;;9.62;100.00;101473.63;5113760;28;20015;-57
2023/04/29 02:58:22;;;;;;;65.68;47.72;;;;;;;9.64;100.00;101486.81;5112762;28;20027;-57
2023/04/29 03:00:48;;;;;;;62.78;48.72;;;;;;;9.63;100.00;101491.28;5115353;28;20463;-57
2023/04/29 03:03:13;;;;;;;60.75;47.67;;;;;;;9.54;100.00;101491.72;5110349;28;20016;-57
2023/04/29 03:05:41;;;;;;;59.70;47.60;;;;;;;9.52;100.00;101490.94;5114218;28;20063;-57
2023/04/29 03:08:09;;;;;;;60.38;47.90;;;;;;;9.58;100.00;101489.78;5111522;28;20085;-57
2023/04/29 03:10:34;;;;;;;62.55;47.80;;;;;;;9.52;100.00;101490.94;5112392;28;20482;-57
2023/04/29 03:13:00;;;;;;;60.92;47.95;;;;;;;9.50;100.00;101479.50;5112391;28;20027;-57
2023/04/29 03:15:25;;;;;;;59.22;48.10;;;;;;;9.53;100.00;101484.69;5115191;28;20055;-57
2023/04/29 03:17:53;;;;;;;58.17;48.30;;;;;;;9.55;100.00;101493.44;5112374;28;20549;-57
2023/04/29 03:20:20;;;;;;;61.07;46.57;;;;;;;9.47;100.00;101490.28;5096289;28;20061;-57
2023/04/29 03:22:47;;;;;;;64.78;48.17;;;;;;;9.50;100.00;101495.44;5093470;28;20044;-57
2023/04/29 03:25:15;;;;;;;56.55;47.05;;;;;;;9.64;100.00;101490.31;5093253;28;20066;-57
2023/04/29 03:27:40;;;;;;;63.42;50.05;;;;;;;9.41;100.00;101485.25;5093069;28;20031;-57
2023/04/29 03:30:06;;;;;;;59.40;48.00;;;;;;;9.47;100.00;101491.16;5094196;28;20097;-57
2023/04/29 03:32:32;;;;;;;59.95;47.15;;;;;;;9.57;100.00;101504.84;5094186;28;20026;-57
2023/04/29 03:34:57;;;;;;;61.25;47.88;;;;;;;9.53;100.00;101501.50;5093022;28;20378;-57
2023/04/29 03:37:23;;;;;;;62.75;48.10;;;;;;;9.54;100.00;101507.66;5093443;28;20016;-58
2023/04/29 03:39:48;;;;;;;62.50;47.85;;;;;;;9.57;100.00;101510.16;5094286;28;20033;-57
2023/04/29 03:42:13;;;;;;;59.33;45.30;;;;;;;9.58;100.00;101508.38;5093690;28;20028;-57
2023/04/29 03:44:39;;;;;;;58.83;46.20;;;;;;;9.62;100.00;101502.84;5092985;28;20023;-58
2023/04/29 03:47:05;;;;;;;67.18;47.17;;;;;;;9.52;100.00;101507.72;5093712;28;20028;-57
2023/04/29 03:49:30;;;;;;;61.05;45.83;;;;;;;9.45;100.00;101508.97;5094173;28;20027;-57
2023/04/29 03:51:56;;;;;;;62.88;45.63;;;;;;;9.47;100.00;101514.19;5091747;28;20028;-57
2023/04/29 03:54:22;;;;;;;61.90;46.10;;;;;;;9.54;100.00;101523.59;5094075;28;20039;-58
2023/04/29 03:56:47;;;;;;;56.70;44.78;;;;;;;9.50;100.00;101520.22;5093699;28;20050;-57
2023/04/29 03:59:13;;;;;;;63.00;44.95;;;;;;;9.42;100.00;101517.06;5093938;28;20039;-57
2023/04/29 04:01:38;;;;;;;56.83;43.85;;;;;;;9.33;100.00;101513.06;5093848;28;20035;-57
2023/04/29 04:04:04;;;;;;;57.45;44.67;;;;;;;9.35;100.00;101526.25;5093603;28;20024;-57
2023/04/29 04:06:30;;;;;;;59.20;42.95;;;;;;;9.38;100.00;101526.09;5093210;28;20016;-57
2023/04/29 04:08:56;;;;;;;54.72;45.03;;;;;;;9.44;100.00;101528.50;5092425;28;20436;-58
2023/04/29 04:11:23;;;;;;;59.38;45.35;;;;;;;9.44;100.00;101528.50;5093541;28;20038;-57
2023/04/29 04:13:49;;;;;;;61.60;45.85;;;;;;;9.51;100.00;101529.91;5093643;28;20035;-57
2023/04/29 04:16:17;;;;;;;57.78;43.28;;;;;;;9.40;100.00;101537.50;5093611;28;20024;-57
2023/04/29 04:18:43;;;;;;;58.72;42.55;;;;;;;9.50;100.00;101536.16;5092305;28;20360;-57
2023/04/29 04:21:10;;;;;;;57.80;42.83;;;;;;;9.41;100.00;101541.03;5104636;28;20045;-57
2023/04/29 04:23:39;;;;;;;53.30;42.25;;;;;;;9.38;100.00;101543.81;5105962;28;20460;-57
2023/04/29 04:26:04;;;;;;;50.10;41.83;;;;;;;9.40;100.00;101539.31;5095236;28;20072;-58
2023/04/29 04:28:29;;;;;;;53.75;43.47;;;;;;;9.32;100.00;101539.66;5093037;28;20281;-57
2023/04/29 04:30:55;;;;;;;52.08;41.15;;;;;;;9.42;100.00;101540.09;5112114;28;20023;-57
2023/04/29 04:33:21;;;;;;;52.97;41.97;;;;;;;9.35;100.00;101530.69;5108777;28;20015;-57
2023/04/29 04:35:46;;;;;;;50.22;40.50;;;;;;;9.38;100.00;101549.13;5091326;28;20089;-57
2023/04/29 04:38:12;;;;;;;53.17;41.28;;;;;;;9.46;100.00;101557.59;5094490;28;20809;-58
2023/04/29 04:40:41;;;;;;;52.60;39.67;;;;;;;9.36;100.00;101559.84;5109747;28;20023;-57
2023/04/29 04:43:07;;;;;;;51.97;39.80;;;;;;;9.45;100.00;101566.50;5111560;28;20028;-57
2023/04/29 04:45:32;;;;;;;45.70;38.03;;;;;;;9.40;100.00;101565.84;5100150;28;20305;-57
2023/04/29 04:47:57;;;;;;;50.47;39.05;;;;;;;9.45;100.00;101571.81;5092531;28;20077;-58
2023/04/29 04:50:23;;;;;;;46.67;39.75;;;;;;;9.41;100.00;101570.22;5092417;28;20012;-58
2023/04/29 04:52:48;;;;;;;47.95;39.33;;;;;;;9.40;100.00;101569.38;5091893;28;20062;-57
2023/04/29 04:55:13;;;;;;;45.33;39.03;;;;;;;9.52;100.00;101583.88;5098498;28;20478;-57
2023/04/29 04:57:39;;;;;;;46.10;38.58;;;;;;;9.59;100.00;101587.09;5099042;28;20130;-58
2023/04/29 05:00:05;;;;;;;45.70;38.45;;;;;;;9.50;100.00;101589.28;5092212;28;20028;-57
2023/04/29 05:02:31;;;;;;;47.25;37.83;;;;;;;9.46;100.00;101592.13;5091185;28;20108;-58
2023/04/29 05:04:59;;;;;;;48.63;39.97;;;;;;;9.46;100.00;101598.28;5090980;28;20048;-57
2023/04/29 05:07:24;;;;;;;46.15;38.15;;;;;;;9.46;100.00;101587.66;5091977;28;20105;-58
2023/04/29 05:09:50;;;;;;;46.03;39.03;;;;;;;9.51;100.00;101606.06;5091118;28;20024;-57
2023/04/29 05:12:15;;;;;;;45.75;37.42;;;;;;;9.46;100.00;101608.06;5100683;28;20099;-57
2023/04/29 05:14:41;;;;;;;42.55;37.85;;;;;;;9.33;100.00;101602.47;5111703;28;20386;-57
2023/04/29 05:17:10;;;;;;;45.67;38.00;;;;;;;9.26;100.00;101603.66;5109979;28;20014;-57
2023/04/29 05:19:35;;;;;;;44.93;37.27;;;;;;;9.31;100.00;101607.81;5111229;28;20023;-57
2023/04/29 05:22:00;;;;;;;44.42;39.03;;;;;;;9.27;100.00;101608.03;5110553;28;20054;-57
2023/04/29 05:24:26;;;;;;;46.35;38.67;;;;;;;9.30;100.00;101606.09;5112527;28;20106;-57
2023/04/29 05:26:53;;;;;;;47.72;37.05;;;;;;;9.33;100.00;101613.94;5110020;28;20385;-57
2023/04/29 05:29:18;;;;;;;45.03;37.65;;;;;;;9.35;100.00;101613.00;5112792;28;20020;-57
2023/04/29 05:31:44;;;;;;;49.42;37.63;;;;;;;9.41;100.00;101620.66;5111114;28;20023;-57
2023/04/29 05:34:09;;;;;;;48.97;38.88;;;;;;;9.47;100.00;101621.28;5112448;28;20098;-57
2023/04/29 05:36:34;;;;;;;46.15;38.70;;;;;;;9.42;100.00;101611.78;5111904;28;20054;-57
2023/04/29 05:39:02;;;;;;;46.03;37.10;;;;;;;9.50;100.00;101626.44;5112234;28;20047;-57
2023/04/29 05:41:30;;;;;;;45.03;35.00;;;;;;;9.37;100.00;101627.91;5110238;28;20023;-58
2023/04/29 05:43:55;;;;;;;42.30;36.70;;;;;;;9.45;100.00;101632.91;5112162;28;20482;-57
2023/04/29 05:46:21;;;;;;;42.33;36.88;;;;;;;9.38;100.00;101632.28;5103653;28;20020;-58
2023/04/29 05:48:49;;;;;;;40.50;35.60;;;;;;;9.49;100.00;101642.44;5090498;28;20028;-58
2023/04/29 05:51:14;;;;;;;39.50;34.42;;;;;;;9.38;100.00;101644.72;5089997;28;20032;-57
2023/04/29 05:53:40;;;;;;;40.05;34.33;;;;;;;9.41;100.00;101642.78;5097967;28;20583;-58
2023/04/29 05:56:07;;;;;;;41.38;36.08;;;;;;;9.47;100.00;101647.81;5110854;28;20034;-58
2023/04/29 05:58:33;;;;;;;37.75;33.38;;;;;;;9.46;100.00;101653.19;5112264;28;20412;-57
2023/04/29 06:00:59;;;;;;;43.45;35.85;;;;;;;9.54;100.00;101661.69;5110775;28;20493;-57
2023/04/29 06:03:24;;;;;;;40.70;35.33;;;;;;;9.45;100.00;101659.44;5111714;28;20024;-58
2023/04/29 06:05:50;;;;;;;40.80;35.38;;;;;;;9.59;100.00;101667.66;5112965;28;20015;-57
2023/04/29 06:08:18;;;;;;;37.20;33.25;;;;;;;9.62;100.00;101659.53;5114020;28;20023;-58
2023/04/29 06:10:43;;;;;;;41.42;35.88;;;;;;;9.49;100.00;101674.28;5110397;28;20036;-58
2023/04/29 06:13:09;;;;;;;38.30;33.03;;;;;;;9.43;100.00;101679.88;5115061;28;20030;-58
2023/04/29 06:15:34;;;;;;;40.50;35.78;;;;;;;9.38;100.00;101674.75;5114028;28;20098;-57
2023/04/29 06:18:03;;;;;;;40.95;35.03;;;;;;;9.45;100.00;101676.22;5116243;28;20022;-57
2023/04/29 06:20:28;;;;;;;40.40;35.70;;;;;;;9.46;100.00;101680.59;5114886;28;20096;-58
2023/04/29 06:22:54;;;;;;;38.85;34.35;;;;;;;9.44;100.00;101678.94;5113911;28;20070;-57
2023/04/29 06:25:21;;;;;;;43.40;35.03;;;;;;;9.50;100.00;101683.97;5114870;28;20363;-58
2023/04/29 06:27:48;;;;;;;40.95;34.55;;;;;;;9.52;100.00;101677.66;5115818;28;20019;-58
2023/04/29 06:30:13;;;;;;;39.97;35.78;;;;;;;9.59;100.00;101685.34;5114876;28;20482;-57
2023/04/29 06:32:39;;;;;;;43.97;35.20;;;;;;;9.57;100.00;101696.06;5111621;28;20023;-57
2023/04/29 06:35:07;;;;;;;40.47;34.28;;;;;;;9.58;100.00;101691.59;5112044;28;20098;-57
2023/04/29 06:37:33;;;;;;;38.78;34.40;;;;;;;9.59;100.00;101695.97;5111511;28;20027;-58
2023/04/29 06:39:58;;;;;;;37.90;33.50;;;;;;;9.53;100.00;101705.97;5114408;28;20026;-58
2023/04/29 06:42:24;;;;;;;37.92;33.47;;;;;;;9.45;100.00;101701.94;5114257;28;20064;-58
2023/04/29 06:44:49;;;;;;;40.40;33.88;;;;;;;9.53;100.00;101702.47;5112806;28;20399;-58
2023/04/29 06:47:14;;;;;;;41.67;32.97;;;;;;;9.53;100.00;101698.00;5102548;28;20122;-57
2023/04/29 06:49:42;;;;;;;40.53;34.05;;;;;;;9.57;100.00;101713.78;5114041;27;20032;-58
2023/04/29 06:52:08;;;;;;;38.83;34.42;;;;;;;9.62;100.00;101725.06;5113907;28;20039;-57
2023/04/29 06:54:36;;;;;;;42.03;34.03;;;;;;;9.71;100.00;101724.66;5114045;28;20031;-57
2023/04/29 06:57:01;;;;;;;43.45;35.30;;;;;;;9.73;100.00;101731.59;5113883;28;20019;-57
2023/04/29 06:59:27;;;;;;;37.78;32.42;;;;;;;9.73;100.00;101736.06;5114185;28;20043;-57
2023/04/29 07:01:52;;;;;;;42.13;34.33;;;;;;;9.75;100.00;101735.06;5112235;28;20123;-58
2023/04/29 07:04:17;;;;;;;43.83;35.03;;;;;;;9.75;100.00;101735.06;5115257;28;20022;-57
2023/04/29 07:06:45;;;;;;;42.92;34.22;;;;;;;9.82;100.00;101743.59;5114382;28;20118;-57
2023/04/29 07:09:12;;;;;;;39.30;35.15;;;;;;;9.79;100.00;101746.41;5112769;28;20027;-57
2023/04/29 07:11:40;;;;;;;41.03;34.55;;;;;;;9.76;100.00;101743.88;5115382;28;20435;-58
2023/04/29 07:14:09;;;;;;;39.97;35.70;;;;;;;9.86;100.00;101754.97;5114972;28;20031;-57
2023/04/29 07:16:34;;;;;;;39.65;34.58;;;;;;;9.90;100.00;101752.09;5114781;28;20102;-57
2023/04/29 07:19:02;;;;;;;41.17;34.33;;;;;;;10.00;100.00;101757.88;5109378;28;20111;-58
2023/04/29 07:21:29;;;;;;;36.53;32.60;;;;;;;10.05;100.00;101755.84;5111019;28;20530;-57
2023/04/29 07:23:54;;;;;;;35.50;31.70;;;;;;;9.91;100.00;101752.94;5112014;28;20515;-58
2023/04/29 07:26:20;;;;;;;35.67;31.75;;;;;;;9.97;100.00;101758.88;5114770;28;20038;-57
2023/04/29 07:28:48;;;;;;;35.17;31.52;;;;;;;9.97;100.00;101765.97;5112121;28;20031;-58
2023/04/29 07:31:13;;;;;;;35.55;30.05;;;;;;;9.97;100.00;101763.31;5113236;28;20172;-57
2023/04/29 07:33:39;;;;;;;37.97;31.65;;;;;;;10.01;100.00;101772.88;5111272;28;20146;-57
2023/04/29 07:36:06;;;;;;;36.53;32.72;;;;;;;9.95;100.00;101765.19;5112820;28;20019;-58
2023/04/29 07:38:31;;;;;;;36.28;31.83;;;;;;;10.01;100.00;101772.88;5112085;28;20026;-58
2023/04/29 07:40:57;;;;;;;35.03;31.52;;;;;;;9.94;100.00;101779.38;5113146;28;20478;-58
2023/04/29 07:43:22;;;;;;;35.03;31.27;;;;;;;10.02;100.00;101783.41;5114444;28;20059;-57
2023/04/29 07:45:51;;;;;;;36.67;30.50;;;;;;;9.98;100.00;101763.25;5110607;28;20138;-58
2023/04/29 07:48:16;;;;;;;35.67;31.70;;;;;;;10.10;100.00;101780.44;5095696;28;20031;-57
2023/04/29 07:50:42;;;;;;;36.25;30.45;;;;;;;10.06;100.00;101773.53;5114515;28;20038;-57
2023/04/29 07:53:07;;;;;;;35.22;31.55;;;;;;;10.21;100.00;101785.25;5112843;28;20139;-58
2023/04/29 07:55:33;;;;;;;35.85;31.98;;;;;;;10.26;100.00;101793.84;5110248;28;20035;-57
2023/04/29 07:57:58;;;;;;;35.47;31.60;;;;;;;10.30;100.00;101791.97;5113802;28;20364;-58
2023/04/29 08:00:24;;;;;;;38.75;32.58;;;;;;;10.28;98.94;101794.69;5114589;28;20026;-58
2023/04/29 08:02:53;;;;;;;37.20;29.77;;;;;;;10.37;98.97;101799.56;5099764;28;20459;-58
2023/04/29 08:05:20;;;;;;;33.90;30.30;;;;;;;10.39;99.38;101794.19;5093747;28;20016;-57
2023/04/29 08:07:51;;;;;;;35.53;31.80;;;;;;;10.52;99.43;101799.78;5093792;28;20036;-57
2023/04/29 08:10:18;;;;;;;33.00;29.50;;;;;;;10.66;98.64;101805.31;5072240;28;20028;-58
2023/04/29 08:12:47;;;;;;;32.38;28.73;;;;;;;10.73;98.65;101800.56;5088390;28;20457;-57
2023/04/29 08:15:12;;;;;;;34.28;30.58;;;;;;;10.80;98.25;101812.66;5098961;28;20031;-57
2023/04/29 08:17:40;;;;;;;31.48;28.10;;;;;;;10.86;95.83;101809.69;5095624;28;20031;-57
2023/04/29 08:20:07;;;;;;;31.60;28.40;;;;;;;10.75;95.88;101806.69;5091792;28;20032;-57
2023/04/29 08:22:35;;;;;;;31.58;28.25;;;;;;;10.80;96.30;101812.66;5091230;28;20070;-57
2023/04/29 08:25:05;;;;;;;30.55;27.40;;;;;;;10.89;96.30;101812.19;5093207;28;20028;-57
2023/04/29 08:27:33;;;;;;;35.60;29.02;;;;;;;10.82;96.03;101790.31;5092781;28;20020;-57
2023/04/29 08:29:58;;;;;;;34.17;28.17;;;;;;;11.11;95.87;101806.66;5099832;28;20027;-57
2023/04/29 08:32:24;;;;;;;32.53;29.02;;;;;;;11.27;96.42;101809.44;5113516;27;20016;-57
2023/04/29 08:34:50;;;;;;;30.52;27.40;;;;;;;11.25;94.57;101808.63;5100729;28;20028;-57
2023/04/29 08:37:15;;;;;;;31.35;28.02;;;;;;;11.31;95.13;101816.31;5099152;28;20131;-57
2023/04/29 08:39:45;;;;;;;29.02;26.15;;;;;;;11.39;93.52;101815.94;5112403;28;20439;-57
2023/04/29 08:42:11;;;;;;;29.88;25.48;;;;;;;11.38;92.57;101823.03;5095637;28;20483;-57
2023/04/29 08:44:38;;;;;;;28.58;25.67;;;;;;;11.40;93.20;101831.81;5091719;28;20049;-57
2023/04/29 08:47:04;;;;;;;26.90;24.08;;;;;;;11.41;92.36;101816.69;5091247;28;20107;-57
2023/04/29 08:49:31;;;;;;;27.35;24.65;;;;;;;11.48;90.45;101826.13;5092973;28;20173;-57
2023/04/29 08:51:56;;;;;;;28.83;25.63;;;;;;;11.68;90.87;101825.94;5097017;28;20043;-57
2023/04/29 08:54:24;;;;;;;27.33;24.67;;;;;;;11.87;90.10;101825.00;5097569;28;20103;-57
2023/04/29 08:56:51;;;;;;;25.00;22.40;;;;;;;11.90;87.49;101830.19;5090960;28;20023;-57
2023/04/29 08:59:18;;;;;;;30.10;22.95;;;;;;;11.90;87.27;101832.84;5094286;28;20080;-58
2023/04/29 09:01:49;;;;;;;26.23;23.58;;;;;;;11.91;88.16;101837.22;5091165;28;20031;-57
2023/04/29 09:04:20;;;;;;;26.70;23.85;;;;;;;11.91;86.55;101835.44;5092612;28;20024;-57
2023/04/29 09:06:46;;;;;;;28.80;24.67;;;;;;;12.11;88.89;101833.50;5091834;28;20023;-57
2023/04/29 09:09:14;;;;;;;26.45;23.67;;;;;;;12.23;87.17;101825.69;5092198;28;20044;-58
2023/04/29 09:11:39;;;;;;;27.17;22.98;;;;;;;12.50;87.80;101843.84;5092312;28;20035;-58
2023/04/29 09:14:05;;;;;;;24.25;21.50;;;;;;;12.39;84.57;101841.75;5092487;28;20027;-58
2023/04/29 09:16:30;;;;;;;29.88;22.33;;;;;;;12.39;85.86;101831.06;5091002;28;20056;-58
2023/04/29 09:18:56;;;;;;;26.17;22.70;;;;;;;12.30;84.95;101841.41;5091161;28;20024;-57
2023/04/29 09:21:27;;;;;;;24.33;21.52;;;;;;;12.44;84.17;101849.47;5092057;28;20494;-58
2023/04/29 09:23:55;;;;;;;22.63;20.30;;;;;;;12.48;82.19;101845.72;5092058;28;20051;-58
2023/04/29 09:26:21;;;;;;;22.75;20.35;;;;;;;12.56;83.09;101838.16;5091918;28;20028;-57
2023/04/29 09:29:04;;;;;;;19.63;17.63;;;;;;;12.54;79.60;101850.72;5090963;28;20832;-58
2023/04/29 09:31:29;;;;;;;22.23;20.05;;;;;;;12.68;81.75;101839.28;5072014;28;20028;-58
2023/04/29 09:33:57;;;;;;;22.33;20.08;;;;;;;13.20;81.56;101849.63;5070561;28;20548;-58
2023/04/29 09:36:46;;;;;;;22.27;19.42;;;;;;;13.83;81.61;101844.13;5069871;28;20024;-58
2023/04/29 09:39:16;;;;;;;21.23;19.02;;;;;;;14.03;76.24;101847.38;5073504;28;20034;-57
2023/04/29 09:41:51;;;;;;;16.35;14.73;;;;;;;14.15;73.60;101853.78;5101515;28;20024;-58
2023/04/29 09:44:16;;;;;;;19.08;15.85;;;;;;;14.01;74.10;101852.00;5090571;28;20032;-58
2023/04/29 09:46:42;;;;;;;18.58;16.63;;;;;;;13.99;74.73;101851.22;5091909;28;20028;-58
2023/04/29 09:49:24;;;;;;;18.63;16.73;;;;;;;13.91;75.57;101865.03;5090815;28;20119;-57
2023/04/29 09:51:53;;;;;;;17.52;15.80;;;;;;;14.23;75.57;101857.72;5104056;27;20039;-58
2023/04/29 09:54:21;;;;;;;18.55;16.48;;;;;;;14.43;73.04;101859.16;5095017;28;20040;-58
2023/04/29 09:56:49;;;;;;;18.40;16.48;;;;;;;14.27;73.32;101853.06;5080028;28;20503;-58
2023/04/29 09:59:15;;;;;;;17.77;15.90;;;;;;;14.06;73.83;101853.44;5083296;28;20028;-58
2023/04/29 10:01:40;;;;;;;19.90;17.88;;;;;;;13.88;74.65;101865.22;5097876;28;20458;-58
2023/04/29 10:04:07;;;;;;;18.95;16.95;;;;;;;13.70;75.25;101861.00;5109726;28;20022;-58
2023/04/29 10:06:33;;;;;;;18.50;16.73;;;;;;;13.45;73.88;101881.19;5106060;28;20023;-58
2023/04/29 10:08:59;;;;;;;17.23;15.52;;;;;;;13.39;74.33;101877.06;5091423;28;20031;-58
2023/04/29 10:11:25;;;;;;;19.02;16.50;;;;;;;13.52;75.40;101871.84;5095235;28;20106;-57
2023/04/29 10:13:51;;;;;;;16.98;15.30;;;;;;;13.71;74.87;101881.47;5094199;28;20031;-57
2023/04/29 10:16:31;;;;;;;16.65;14.73;;;;;;;13.80;72.96;101886.25;5111758;28;20035;-58
2023/04/29 10:19:02;;;;;;;17.48;15.75;;;;;;;13.63;70.26;101887.25;5110616;28;20382;-58
2023/04/29 10:21:30;;;;;;;17.00;15.20;;;;;;;13.68;72.26;101887.84;5099136;28;20023;-58
2023/04/29 10:23:57;;;;;;;17.60;15.18;;;;;;;13.62;74.04;101886.41;5094738;28;20097;-58
2023/04/29 10:26:26;;;;;;;15.85;14.23;;;;;;;13.69;71.69;101884.22;5111533;28;20034;-58
2023/04/29 10:28:58;;;;;;;16.48;14.82;;;;;;;13.67;73.49;101877.22;5110535;28;20031;-58
2023/04/29 10:31:29;;;;;;;16.92;15.20;;;;;;;13.60;73.83;101893.63;5111888;28;20466;-58
2023/04/29 10:33:56;;;;;;;18.92;15.10;;;;;;;13.44;73.52;101889.28;5111849;28;20019;-58
2023/04/29 10:36:25;;;;;;;15.10;13.52;;;;;;;13.43;71.37;101895.56;5096945;28;20111;-58
2023/04/29 10:38:54;;;;;;;15.50;13.95;;;;;;;13.29;71.66;101891.88;5096163;28;20034;-58
2023/04/29 10:41:27;;;;;;;16.70;15.00;;;;;;;13.24;73.09;101885.06;5100821;28;20024;-57
2023/04/29 10:43:54;;;;;;;17.25;14.82;;;;;;;13.45;72.49;101888.34;5094435;28;20027;-57
2023/04/29 10:46:26;;;;;;;16.60;14.52;;;;;;;13.52;70.01;101887.88;5085161;28;20120;-58
2023/04/29 10:49:05;;;;;;;17.42;14.10;;;;;;;13.74;71.66;101886.63;5073427;28;20475;-57
2023/04/29 10:51:31;;;;;;;;;;;;;;;13.91;72.07;101885.59;5086774;28;20473;-58
2023/04/29 10:54:05;;;;;;;16.23;14.43;;;;;;;13.90;70.78;101891.91;5098321;28;20336;-58
2023/04/29 10:56:40;;;;;;;16.52;13.70;;;;;;;13.99;71.86;101892.19;5090064;28;20432;-59
2023/04/29 10:59:11;;;;;;;16.92;14.88;;;;;;;13.97;70.57;101893.22;5087604;28;20023;-58
2023/04/29 11:01:50;;;;;;;16.30;14.38;;;;;;;13.99;70.80;101891.34;5094311;28;20020;-58
2023/04/29 11:04:18;;;;;;;16.42;14.77;;;;;;;13.80;70.12;101903.16;5094284;28;20050;-58
2023/04/29 11:06:52;;;;;;;16.48;14.77;;;;;;;13.80;70.40;101905.81;5092055;28;20024;-58
2023/04/29 11:09:23;;;;;;;15.40;13.95;;;;;;;13.91;70.12;101898.97;5100033;28;20487;-58